createdAt,value
2022-10-06T00:01:21.063Z,1.58
2022-10-06T00:03:47.588Z,1.65
2022-10-06T00:06:15.228Z,1.48
2022-10-06T00:08:42.497Z,1.50
2022-10-06T00:11:09.513Z,1.33
2022-10-06T00:13:35.949Z,1.80
2022-10-06T00:16:02.598Z,1.50
2022-10-06T00:18:29.909Z,1.58
2022-10-06T00:20:57.621Z,1.63
2022-10-06T00:23:24.308Z,1.50
2022-10-06T00:25:50.768Z,1.48
2022-10-06T00:28:17.298Z,1.50
2022-10-06T00:30:44.955Z,1.40
2022-10-06T00:33:12.757Z,1.60
2022-10-06T00:35:39.156Z,1.33
2022-10-06T00:38:05.781Z,1.55
2022-10-06T00:40:32.507Z,1.30
2022-10-06T00:43:00.491Z,1.13
2022-10-06T00:45:34.946Z,1.25
2022-10-06T00:48:03.366Z,1.23
2022-10-06T00:50:30.334Z,1.00
2022-10-06T00:52:56.862Z,1.30
2022-10-06T00:55:23.752Z,1.17
2022-10-06T00:57:50.511Z,1.30
2022-10-06T01:00:17.441Z,1.40
2022-10-06T01:02:49.400Z,1.10
2022-10-06T01:05:25.652Z,1.20
2022-10-06T01:07:52.159Z,1.10
2022-10-06T01:10:18.593Z,1.02
2022-10-06T01:12:45.107Z,0.90
2022-10-06T01:15:12.051Z,0.88
2022-10-06T01:17:41.266Z,1.17
2022-10-06T01:20:09.522Z,1.00
2022-10-06T01:22:35.899Z,1.05
2022-10-06T01:25:03.333Z,1.08
2022-10-06T01:27:30.376Z,0.98
2022-10-06T01:29:57.378Z,0.90
2022-10-06T01:32:24.861Z,1.00
2022-10-06T01:34:51.256Z,1.02
2022-10-06T01:37:17.663Z,1.00
2022-10-06T01:39:44.606Z,1.13
2022-10-06T01:42:11.447Z,1.08
2022-10-06T01:44:37.960Z,0.90
2022-10-06T01:47:05.236Z,1.00
2022-10-06T01:49:31.732Z,0.90
2022-10-06T01:52:00.776Z,0.90
2022-10-06T01:54:27.160Z,0.95
2022-10-06T01:56:53.667Z,1.10
2022-10-06T01:59:20.071Z,0.90
2022-10-06T02:01:46.677Z,0.80
2022-10-06T02:04:13.214Z,0.75
2022-10-06T02:06:39.669Z,0.90
2022-10-06T02:09:06.133Z,0.93
2022-10-06T02:11:32.578Z,0.98
2022-10-06T02:14:01.526Z,0.98
2022-10-06T02:16:28.419Z,0.80
2022-10-06T02:18:54.954Z,0.88
2022-10-06T02:21:22.316Z,0.82
2022-10-06T02:23:48.807Z,0.70
2022-10-06T02:26:19.122Z,0.70
2022-10-06T02:28:46.894Z,0.80
2022-10-06T02:31:14.156Z,0.77
2022-10-06T02:33:41.423Z,0.70
2022-10-06T02:36:08.621Z,0.70
2022-10-06T02:38:35.076Z,0.60
2022-10-06T02:41:02.145Z,0.80
2022-10-06T02:43:30.026Z,0.70
2022-10-06T02:45:57.179Z,0.57
2022-10-06T02:48:24.549Z,0.60
2022-10-06T02:50:58.205Z,0.80
2022-10-06T02:53:27.517Z,0.50
2022-10-06T02:55:57.725Z,0.70
2022-10-06T02:58:24.118Z,0.47
2022-10-06T03:00:50.585Z,0.70
2022-10-06T03:03:17.006Z,0.60
2022-10-06T03:05:43.502Z,0.57
2022-10-06T03:08:13.020Z,0.60
2022-10-06T03:10:41.895Z,0.50
2022-10-06T03:13:08.401Z,0.60
2022-10-06T03:15:34.832Z,0.68
2022-10-06T03:18:01.298Z,0.73
2022-10-06T03:20:27.724Z,0.50
2022-10-06T03:22:54.407Z,0.50
2022-10-06T03:25:20.883Z,0.68
2022-10-06T03:27:47.446Z,0.55
2022-10-06T03:30:13.873Z,0.60
2022-10-06T03:32:40.321Z,0.70
2022-10-06T03:35:06.992Z,0.60
2022-10-06T03:37:33.715Z,0.60
2022-10-06T03:40:00.926Z,0.50
2022-10-06T03:42:27.701Z,0.60
2022-10-06T03:44:54.147Z,0.60
2022-10-06T03:47:20.582Z,0.60
2022-10-06T03:49:47.020Z,0.63
2022-10-06T03:52:13.422Z,0.60
2022-10-06T03:54:40.025Z,0.60
2022-10-06T03:57:06.711Z,0.57
2022-10-06T03:59:34.391Z,0.50
2022-10-06T04:02:00.921Z,0.52
2022-10-06T04:04:28.667Z,0.50
2022-10-06T04:06:55.111Z,0.50
2022-10-06T04:09:21.605Z,0.55
2022-10-06T04:11:48.084Z,0.38
2022-10-06T04:14:15.547Z,0.40
2022-10-06T04:16:43.773Z,0.40
2022-10-06T04:19:14.138Z,0.43
2022-10-06T04:21:41.847Z,0.50
2022-10-06T04:24:08.918Z,0.63
2022-10-06T04:26:36.784Z,0.60
2022-10-06T04:29:03.317Z,0.40
2022-10-06T04:31:31.610Z,0.45
2022-10-06T04:33:59.317Z,0.50
2022-10-06T04:36:26.884Z,0.38
2022-10-06T04:38:56.299Z,0.50
2022-10-06T04:41:23.444Z,0.40
2022-10-06T04:43:50.719Z,0.50
2022-10-06T04:46:41.623Z,0.40
2022-10-06T04:49:04.869Z,0.32
2022-10-06T04:51:34.181Z,0.75
2022-10-06T04:54:02.564Z,0.47
2022-10-06T04:56:29.923Z,0.50
2022-10-06T04:58:56.960Z,0.43
2022-10-06T05:01:24.928Z,0.50
2022-10-06T05:03:52.615Z,0.40
2022-10-06T05:06:20.665Z,0.40
2022-10-06T05:08:48.512Z,0.40
2022-10-06T05:11:15.142Z,0.40
2022-10-06T05:13:44.393Z,0.38
2022-10-06T05:16:12.609Z,0.40
2022-10-06T05:18:39.154Z,0.40
2022-10-06T05:21:11.330Z,0.50
2022-10-06T05:23:38.476Z,0.40
2022-10-06T05:26:05.511Z,0.40
2022-10-06T05:28:33.335Z,0.40
2022-10-06T05:31:05.312Z,0.40
2022-10-06T05:33:33.742Z,0.50
2022-10-06T05:36:06.530Z,0.30
2022-10-06T05:38:33.811Z,0.30
2022-10-06T05:41:07.071Z,0.45
2022-10-06T05:43:33.703Z,0.40
2022-10-06T05:46:01.306Z,0.50
2022-10-06T05:48:28.564Z,0.43
2022-10-06T05:51:02.790Z,0.40
2022-10-06T05:53:29.935Z,0.40
2022-10-06T05:56:06.999Z,0.40
2022-10-06T05:58:34.818Z,0.40
2022-10-06T06:01:08.719Z,0.50
2022-10-06T06:03:35.239Z,0.30
2022-10-06T06:06:01.656Z,0.45
2022-10-06T06:08:28.336Z,0.50
2022-10-06T06:10:54.882Z,0.60
2022-10-06T06:13:21.901Z,0.50
2022-10-06T06:16:00.841Z,0.50
2022-10-06T06:18:31.684Z,0.47
2022-10-06T06:20:59.055Z,0.40
2022-10-06T06:23:25.776Z,0.30
2022-10-06T06:26:02.636Z,0.40
2022-10-06T06:28:30.483Z,0.40
2022-10-06T06:31:07.526Z,0.30
2022-10-06T06:33:37.935Z,0.40
2022-10-06T06:36:11.949Z,0.32
2022-10-06T06:38:38.400Z,0.50
2022-10-06T06:41:04.829Z,0.50
2022-10-06T06:43:32.054Z,0.40
2022-10-06T06:46:02.346Z,0.40
2022-10-06T06:48:29.234Z,0.40
2022-10-06T06:50:58.896Z,0.40
2022-10-06T06:53:25.443Z,0.45
2022-10-06T06:55:52.041Z,0.40
2022-10-06T06:58:19.636Z,0.40
2022-10-06T07:00:49.206Z,0.40
2022-10-06T07:03:32.849Z,0.43
2022-10-06T07:06:11.108Z,0.43
2022-10-06T07:08:38.276Z,0.57
2022-10-06T07:11:12.332Z,0.60
2022-10-06T07:13:38.948Z,0.50
2022-10-06T07:16:24.080Z,0.57
2022-10-06T07:19:08.808Z,0.50
2022-10-06T07:21:53.602Z,0.50
2022-10-06T07:24:39.825Z,0.50
2022-10-06T07:27:06.493Z,0.40
2022-10-06T07:29:33.116Z,0.40
2022-10-06T07:31:59.520Z,0.45
2022-10-06T07:34:26.795Z,0.50
2022-10-06T07:36:54.263Z,0.50
2022-10-06T07:39:20.851Z,0.50
2022-10-06T07:41:47.293Z,0.70
2022-10-06T07:44:13.677Z,0.60
2022-10-06T07:46:40.040Z,0.63
2022-10-06T07:49:06.405Z,0.50
2022-10-06T07:51:32.819Z,0.40
2022-10-06T07:53:59.264Z,0.57
2022-10-06T07:56:25.867Z,0.60
2022-10-06T07:58:52.352Z,0.77
2022-10-06T08:01:20.099Z,1.00
2022-10-06T08:03:48.535Z,0.95
2022-10-06T08:06:17.178Z,1.20
2022-10-06T08:08:47.044Z,1.00
2022-10-06T08:11:15.743Z,1.05
2022-10-06T08:13:43.726Z,0.88
2022-10-06T08:16:12.520Z,1.00
2022-10-06T08:18:46.567Z,1.10
2022-10-06T08:21:17.917Z,0.90
2022-10-06T08:23:45.193Z,1.15
2022-10-06T08:26:12.189Z,0.90
2022-10-06T08:28:43.038Z,0.80
2022-10-06T08:31:11.731Z,0.70
2022-10-06T08:33:38.847Z,0.90
2022-10-06T08:36:15.434Z,0.70
2022-10-06T08:38:42.559Z,0.82
2022-10-06T08:41:18.261Z,1.00
2022-10-06T08:43:47.315Z,0.80
2022-10-06T08:46:14.623Z,0.90
2022-10-06T08:48:41.016Z,0.80
2022-10-06T08:51:18.682Z,0.60
2022-10-06T08:54:03.753Z,0.80
2022-10-06T08:56:32.436Z,0.80
2022-10-06T08:59:04.152Z,0.70
2022-10-06T09:01:41.418Z,0.75
2022-10-06T09:04:10.702Z,0.70
2022-10-06T09:06:43.133Z,0.60
2022-10-06T09:09:16.842Z,0.70
2022-10-06T09:12:06.859Z,0.80
2022-10-06T09:14:48.080Z,0.70
2022-10-06T09:17:22.787Z,0.70
2022-10-06T09:19:53.933Z,0.70
2022-10-06T09:22:21.967Z,0.83
2022-10-06T09:24:51.189Z,0.60
2022-10-06T09:27:17.730Z,0.60
2022-10-06T09:29:45.198Z,0.70
2022-10-06T09:32:12.248Z,0.80
2022-10-06T09:34:40.772Z,0.68
2022-10-06T09:37:10.834Z,0.60
2022-10-06T09:39:38.411Z,0.77
2022-10-06T09:42:10.896Z,0.70
2022-10-06T09:44:56.025Z,0.63
2022-10-06T09:47:33.067Z,0.63
2022-10-06T09:50:04.260Z,0.57
2022-10-06T09:52:30.663Z,0.70
2022-10-06T09:55:10.126Z,0.50
2022-10-06T09:57:37.333Z,0.43
2022-10-06T10:00:04.744Z,0.50
2022-10-06T10:02:37.192Z,0.70
2022-10-06T10:05:20.381Z,0.93
2022-10-06T10:08:00.273Z,0.80
2022-10-06T10:10:26.637Z,0.70
2022-10-06T10:13:00.183Z,0.60
2022-10-06T10:15:31.605Z,0.80
2022-10-06T10:18:03.222Z,0.77
2022-10-06T10:20:29.651Z,0.70
2022-10-06T10:22:58.376Z,0.52
2022-10-06T10:25:44.636Z,0.50
2022-10-06T10:28:11.089Z,0.65
2022-10-06T10:30:45.268Z,0.50
2022-10-06T10:33:30.254Z,0.60
2022-10-06T10:35:57.370Z,0.70
2022-10-06T10:38:24.796Z,0.68
2022-10-06T10:40:54.658Z,0.50
2022-10-06T10:43:22.235Z,0.57
2022-10-06T10:45:51.204Z,0.60
2022-10-06T10:48:28.234Z,0.60
2022-10-06T10:51:01.598Z,0.63
2022-10-06T10:53:30.901Z,0.70
2022-10-06T10:55:57.436Z,0.50
2022-10-06T10:58:37.486Z,0.75
2022-10-06T11:01:36.304Z,0.50
2022-10-06T11:04:03.121Z,0.60
2022-10-06T11:06:40.223Z,0.80
2022-10-06T11:09:15.776Z,0.55
2022-10-06T11:11:54.355Z,0.47
2022-10-06T11:14:31.598Z,0.55
2022-10-06T11:17:08.353Z,0.50
2022-10-06T11:19:57.786Z,0.47
2022-10-06T11:22:37.287Z,0.57
2022-10-06T11:25:13.691Z,0.50
2022-10-06T11:27:44.696Z,0.70
2022-10-06T11:30:15.054Z,0.50
2022-10-06T11:32:49.128Z,0.60
2022-10-06T11:35:18.646Z,0.43
2022-10-06T11:37:53.885Z,0.50
2022-10-06T11:40:23.327Z,0.50
2022-10-06T11:42:55.884Z,0.45
2022-10-06T11:45:38.712Z,0.30
2022-10-06T11:48:05.088Z,0.55
2022-10-06T11:50:33.911Z,0.50
2022-10-06T11:53:00.578Z,0.40
2022-10-06T11:55:28.899Z,0.50
2022-10-06T11:58:12.648Z,0.40
2022-10-06T12:00:50.201Z,0.40
2022-10-06T12:03:28.521Z,0.40
2022-10-06T12:05:56.514Z,0.40
2022-10-06T12:08:39.738Z,0.38
2022-10-06T12:11:24.983Z,0.30
2022-10-06T12:17:11.507Z,0.40
2022-10-06T12:19:36.259Z,0.40
2022-10-06T12:22:12.493Z,0.30
2022-10-06T12:24:39.041Z,0.60
2022-10-06T12:27:15.637Z,0.43
2022-10-06T12:29:47.974Z,0.40
2022-10-06T12:32:14.422Z,0.40
2022-10-06T12:34:51.955Z,0.50
2022-10-06T12:37:37.111Z,0.30
2022-10-06T12:40:22.151Z,0.30
2022-10-06T12:42:48.591Z,0.38
2022-10-06T12:45:16.374Z,0.30
2022-10-06T12:47:44.294Z,0.35
2022-10-06T12:50:25.481Z,0.40
2022-10-06T12:53:05.781Z,0.40
2022-10-06T12:55:35.423Z,0.30
2022-10-06T12:58:01.866Z,0.28
2022-10-06T13:00:34.652Z,0.40
2022-10-06T13:03:02.746Z,0.35
2022-10-06T13:05:29.902Z,0.38
2022-10-06T13:08:02.210Z,0.25
2022-10-06T13:10:32.647Z,0.30
2022-10-06T13:12:59.715Z,0.30
2022-10-06T13:15:34.690Z,0.40
2022-10-06T13:18:10.686Z,0.20
2022-10-06T13:20:39.644Z,0.30
2022-10-06T13:23:16.024Z,0.30
2022-10-06T13:25:48.234Z,0.30
2022-10-06T13:30:41.587Z,0.20
2022-10-06T13:33:08.137Z,0.20
2022-10-06T13:35:34.536Z,0.30
2022-10-06T13:38:03.881Z,0.20
2022-10-06T13:40:44.608Z,0.30
2022-10-06T13:43:15.120Z,0.25
2022-10-06T13:45:42.738Z,0.28
2022-10-06T13:48:16.939Z,0.20
2022-10-06T13:50:47.256Z,0.30
2022-10-06T13:53:43.238Z,0.20
2022-10-06T13:56:24.176Z,0.20
2022-10-06T13:58:50.601Z,0.30
2022-10-06T14:01:27.318Z,0.22
2022-10-06T14:04:12.364Z,0.25
2022-10-06T14:06:45.036Z,0.20
2022-10-06T14:09:13.359Z,0.20
2022-10-06T14:11:42.252Z,0.15
2022-10-06T14:14:16.045Z,0.20
2022-10-06T14:16:47.403Z,0.20
2022-10-06T14:19:29.800Z,0.20
2022-10-06T14:24:23.462Z,0.20
2022-10-06T14:26:50.424Z,0.20
2022-10-06T14:29:17.136Z,0.20
2022-10-06T14:31:44.164Z,0.20
2022-10-06T14:34:14.613Z,0.28
2022-10-06T14:36:42.035Z,0.28
2022-10-06T14:39:10.878Z,0.20
2022-10-06T14:41:37.572Z,0.20
2022-10-06T14:44:06.145Z,0.20
2022-10-06T14:46:33.547Z,0.20
2022-10-06T14:49:00.776Z,0.10
2022-10-06T14:51:28.588Z,0.20
2022-10-06T14:53:57.009Z,0.20
2022-10-06T14:56:24.620Z,0.28
2022-10-06T14:58:51.458Z,0.20
2022-10-06T15:01:18.953Z,0.30
2022-10-06T15:03:56.030Z,0.20
2022-10-06T15:06:41.254Z,0.28
2022-10-06T15:09:07.799Z,0.20
2022-10-06T15:11:34.784Z,0.25
2022-10-06T15:14:02.490Z,0.20
2022-10-06T15:16:29.809Z,0.20
2022-10-06T15:18:57.983Z,0.20
2022-10-06T15:21:24.448Z,0.20
2022-10-06T15:23:57.930Z,0.20
2022-10-06T15:26:43.172Z,0.20
2022-10-06T15:29:12.492Z,0.20
2022-10-06T15:31:40.367Z,0.20
2022-10-06T15:34:08.104Z,0.20
2022-10-06T15:36:38.693Z,0.25
2022-10-06T15:39:06.311Z,0.30
2022-10-06T15:41:33.846Z,0.22
2022-10-06T15:44:00.273Z,0.20
2022-10-06T15:46:34.507Z,0.20
2022-10-06T15:49:02.357Z,0.38
2022-10-06T15:51:30.184Z,0.10
2022-10-06T15:53:58.354Z,0.20
2022-10-06T15:56:25.550Z,0.30
2022-10-06T15:58:51.945Z,0.32
2022-10-06T16:01:33.607Z,0.20
2022-10-06T16:04:05.745Z,0.20
2022-10-06T16:09:17.915Z,0.20
2022-10-06T16:11:44.996Z,0.20
2022-10-06T16:14:11.523Z,0.20
2022-10-06T16:16:43.294Z,0.30
2022-10-06T16:21:37.645Z,0.20
2022-10-06T16:24:04.208Z,0.30
2022-10-06T16:26:30.745Z,0.20
2022-10-06T16:28:57.239Z,0.10
2022-10-06T16:31:23.878Z,0.20
2022-10-06T16:33:50.557Z,0.20
2022-10-06T16:36:17.839Z,0.20
2022-10-06T16:38:44.244Z,0.20
2022-10-06T16:41:10.976Z,0.30
2022-10-06T16:43:38.954Z,0.30
2022-10-06T16:46:25.734Z,0.20
2022-10-06T16:48:53.371Z,0.30
2022-10-06T16:51:19.786Z,0.40
2022-10-06T16:53:47.479Z,0.30
2022-10-06T16:56:15.989Z,0.60
2022-10-06T16:58:46.606Z,0.50
2022-10-06T17:01:13.806Z,0.82
2022-10-06T17:03:40.588Z,0.80
2022-10-06T17:06:11.479Z,0.93
2022-10-06T17:08:38.422Z,1.00
2022-10-06T17:11:12.426Z,1.02
2022-10-06T17:13:40.713Z,1.10
2022-10-06T17:16:11.193Z,1.10
2022-10-06T17:18:37.948Z,1.35
2022-10-06T17:21:20.191Z,1.08
2022-10-06T17:23:52.943Z,1.02
2022-10-06T17:26:20.595Z,1.25
2022-10-06T17:28:51.205Z,1.42
2022-10-06T17:31:18.942Z,1.38
2022-10-06T17:33:45.578Z,1.13
2022-10-06T17:36:16.655Z,1.27
2022-10-06T17:38:47.468Z,1.20
2022-10-06T17:41:18.877Z,1.60
2022-10-06T17:43:49.304Z,1.52
2022-10-06T17:46:22.218Z,1.90
2022-10-06T17:48:50.191Z,1.40
2022-10-06T17:51:20.910Z,1.85
2022-10-06T17:53:53.917Z,2.03
2022-10-06T17:56:21.331Z,2.08
2022-10-06T17:58:54.935Z,1.65
2022-10-06T18:01:22.141Z,1.90
2022-10-06T18:03:48.809Z,1.70
2022-10-06T18:06:17.145Z,2.20
2022-10-06T18:08:44.857Z,2.10
2022-10-06T18:11:33.966Z,2.10
2022-10-06T18:14:01.633Z,2.40
2022-10-06T18:16:31.185Z,2.38
2022-10-06T18:19:02.728Z,2.83
2022-10-06T18:21:39.458Z,2.70
2022-10-06T18:24:16.488Z,2.67
2022-10-06T18:26:48.210Z,3.13
2022-10-06T18:29:18.983Z,2.90
2022-10-06T18:31:47.525Z,3.10
2022-10-06T18:37:00.689Z,3.45
2022-10-06T18:39:31.605Z,3.10
2022-10-06T18:42:02.414Z,2.90
2022-10-06T18:44:47.418Z,3.53
2022-10-06T18:47:32.478Z,3.30
2022-10-06T18:49:58.870Z,3.53
2022-10-06T18:52:25.268Z,3.63
2022-10-06T18:54:51.754Z,3.25
2022-10-06T18:57:18.268Z,3.58
2022-10-06T18:59:45.125Z,3.63
2022-10-06T19:02:11.920Z,3.65
2022-10-06T19:04:39.394Z,3.88
2022-10-06T19:07:06.021Z,3.70
2022-10-06T19:09:32.433Z,3.88
2022-10-06T19:11:58.907Z,3.70
2022-10-06T19:14:26.408Z,4.10
2022-10-06T19:16:56.389Z,3.97
2022-10-06T19:19:23.533Z,3.78
2022-10-06T19:21:51.756Z,3.95
2022-10-06T19:24:20.296Z,3.30
2022-10-06T19:26:47.955Z,4.10
2022-10-06T19:29:14.513Z,3.92
2022-10-06T19:31:42.940Z,4.05
2022-10-06T19:34:11.765Z,3.88
2022-10-06T19:36:39.327Z,4.07
2022-10-06T19:39:07.168Z,4.32
2022-10-06T19:41:52.261Z,4.07
2022-10-06T19:44:18.712Z,4.10
2022-10-06T19:46:45.111Z,4.07
2022-10-06T19:49:11.567Z,4.18
2022-10-06T19:51:41.308Z,3.95
2022-10-06T19:54:28.809Z,3.70
2022-10-06T19:56:56.187Z,3.97
2022-10-06T19:59:22.694Z,3.88
2022-10-06T20:01:49.512Z,4.18
2022-10-06T20:04:17.129Z,3.97
2022-10-06T20:06:43.959Z,3.80
2022-10-06T20:09:11.211Z,4.40
2022-10-06T20:11:43.748Z,4.78
2022-10-06T20:14:11.786Z,5.32
2022-10-06T20:16:40.022Z,5.15
2022-10-06T20:19:07.620Z,5.72
2022-10-06T20:21:35.371Z,5.90
2022-10-06T20:24:03.706Z,6.28
2022-10-06T20:26:32.153Z,6.43
2022-10-06T20:28:59.978Z,6.05
2022-10-06T20:31:28.533Z,6.25
2022-10-06T20:33:58.175Z,6.95
2022-10-06T20:36:25.412Z,6.30
2022-10-06T20:39:10.792Z,7.00
2022-10-06T20:41:37.780Z,6.05
2022-10-06T20:44:04.807Z,6.47
2022-10-06T20:46:36.384Z,6.72
2022-10-06T20:49:04.307Z,6.45
2022-10-06T20:51:32.322Z,6.82
2022-10-06T20:53:59.154Z,6.55
2022-10-06T20:56:25.696Z,6.93
2022-10-06T20:58:52.505Z,7.25
2022-10-06T21:01:20.642Z,7.10
2022-10-06T21:03:48.762Z,7.30
2022-10-06T21:06:16.313Z,7.53
2022-10-06T21:08:44.070Z,7.43
2022-10-06T21:11:12.016Z,6.88
2022-10-06T21:13:38.924Z,7.15
2022-10-06T21:16:05.745Z,7.35
2022-10-06T21:18:32.478Z,7.10
2022-10-06T21:21:04.781Z,7.78
2022-10-06T21:23:35.723Z,7.13
2022-10-06T21:26:02.207Z,7.68
2022-10-06T21:28:28.872Z,8.27
2022-10-06T21:31:00.760Z,7.63
2022-10-06T21:33:27.330Z,7.10
2022-10-06T21:36:08.527Z,7.70
2022-10-06T21:38:43.660Z,7.40
2022-10-06T21:41:47.586Z,7.78
2022-10-06T21:44:38.816Z,7.45
2022-10-06T21:47:05.307Z,6.97
2022-10-06T21:49:31.727Z,7.30
2022-10-06T21:52:04.755Z,7.72
2022-10-06T21:54:31.396Z,7.13
2022-10-06T21:56:59.123Z,7.30
2022-10-06T21:59:25.540Z,7.20
2022-10-06T22:01:52.032Z,7.05
2022-10-06T22:04:18.603Z,7.38
2022-10-06T22:57:13.477Z,6.80
2022-10-06T22:59:40.314Z,7.20
2022-10-06T23:02:06.726Z,6.95
2022-10-06T23:04:33.221Z,6.95
2022-10-06T23:06:59.640Z,6.80
2022-10-06T23:09:26.043Z,6.43
2022-10-06T23:11:52.563Z,6.90
2022-10-06T23:14:19.047Z,7.05
2022-10-06T23:16:45.553Z,6.20
2022-10-06T23:19:12.100Z,6.78
2022-10-06T23:21:40.259Z,6.53
2022-10-06T23:24:07.635Z,6.45
2022-10-06T23:26:34.340Z,6.45
2022-10-06T23:29:01.182Z,6.47
2022-10-06T23:31:28.752Z,6.60
2022-10-06T23:33:55.332Z,5.88
2022-10-06T23:36:21.810Z,6.40
2022-10-06T23:38:48.271Z,6.10
2022-10-06T23:41:14.911Z,6.32
2022-10-06T23:43:41.336Z,5.93
2022-10-06T23:46:07.875Z,5.78
2022-10-06T23:48:34.383Z,6.32
2022-10-06T23:51:08.647Z,5.85
2022-10-06T23:53:35.089Z,5.95
2022-10-06T23:56:01.916Z,5.45
2022-10-06T23:58:28.599Z,5.40
